sensor_id;sensor_type;location;lat;lon;timestamp;P1;durP1;ratioP1;P2;durP2;ratioP2
20531;SDS011;10424;52.102;8.084;2022-11-04T00:01:20;9.10;;;5.40;;
20531;SDS011;10424;52.102;8.084;2022-11-04T00:03:48;7.95;;;4.43;;
20531;SDS011;10424;52.102;8.084;2022-11-04T00:06:16;7.95;;;5.07;;
20531;SDS011;10424;52.102;8.084;2022-11-04T00:08:46;6.32;;;3.15;;
20531;SDS011;10424;52.102;8.084;2022-11-04T00:11:13;7.93;;;4.80;;
20531;SDS011;10424;52.102;8.084;2022-11-04T00:14:13;8.00;;;4.70;;
20531;SDS011;10424;52.102;8.084;2022-11-04T00:16:41;7.20;;;3.95;;
20531;SDS011;10424;52.102;8.084;2022-11-04T00:19:25;6.57;;;4.18;;
20531;SDS011;10424;52.102;8.084;2022-11-04T00:21:55;9.82;;;4.75;;
20531;SDS011;10424;52.102;8.084;2022-11-04T00:24:39;6.38;;;4.45;;
20531;SDS011;10424;52.102;8.084;2022-11-04T00:27:24;9.35;;;4.75;;
20531;SDS011;10424;52.102;8.084;2022-11-04T00:30:09;10.05;;;5.15;;
20531;SDS011;10424;52.102;8.084;2022-11-04T00:32:37;7.53;;;4.65;;
20531;SDS011;10424;52.102;8.084;2022-11-04T00:35:21;6.78;;;4.47;;
20531;SDS011;10424;52.102;8.084;2022-11-04T00:37:50;6.72;;;4.35;;
20531;SDS011;10424;52.102;8.084;2022-11-04T00:40:17;11.55;;;4.95;;
20531;SDS011;10424;52.102;8.084;2022-11-04T00:42:45;8.80;;;4.90;;
20531;SDS011;10424;52.102;8.084;2022-11-04T00:45:12;10.27;;;5.18;;
20531;SDS011;10424;52.102;8.084;2022-11-04T00:47:39;7.50;;;4.82;;
20531;SDS011;10424;52.102;8.084;2022-11-04T00:50:07;5.43;;;3.33;;
20531;SDS011;10424;52.102;8.084;2022-11-04T00:52:34;5.45;;;4.00;;
20531;SDS011;10424;52.102;8.084;2022-11-04T00:55:03;5.20;;;3.83;;
20531;SDS011;10424;52.102;8.084;2022-11-04T00:57:31;4.30;;;3.45;;
20531;SDS011;10424;52.102;8.084;2022-11-04T00:59:58;5.78;;;3.35;;
20531;SDS011;10424;52.102;8.084;2022-11-04T01:02:25;6.13;;;3.15;;
20531;SDS011;10424;52.102;8.084;2022-11-04T01:04:53;5.53;;;3.63;;
20531;SDS011;10424;52.102;8.084;2022-11-04T01:07:20;6.05;;;3.80;;
20531;SDS011;10424;52.102;8.084;2022-11-04T01:09:47;5.60;;;3.28;;
20531;SDS011;10424;52.102;8.084;2022-11-04T01:12:16;4.90;;;2.45;;
20531;SDS011;10424;52.102;8.084;2022-11-04T01:14:43;3.65;;;2.63;;
20531;SDS011;10424;52.102;8.084;2022-11-04T01:17:14;4.60;;;3.00;;
20531;SDS011;10424;52.102;8.084;2022-11-04T01:19:41;4.15;;;3.25;;
20531;SDS011;10424;52.102;8.084;2022-11-04T01:22:09;3.97;;;2.70;;
20531;SDS011;10424;52.102;8.084;2022-11-04T01:24:36;3.45;;;2.17;;
20531;SDS011;10424;52.102;8.084;2022-11-04T01:27:04;4.22;;;3.10;;
20531;SDS011;10424;52.102;8.084;2022-11-04T01:29:32;3.45;;;2.58;;
20531;SDS011;10424;52.102;8.084;2022-11-04T01:32:00;2.58;;;2.00;;
20531;SDS011;10424;52.102;8.084;2022-11-04T01:34:27;3.40;;;2.83;;
20531;SDS011;10424;52.102;8.084;2022-11-04T01:36:55;2.92;;;2.60;;
20531;SDS011;10424;52.102;8.084;2022-11-04T01:39:22;4.78;;;3.00;;
20531;SDS011;10424;52.102;8.084;2022-11-04T01:41:50;3.85;;;3.00;;
20531;SDS011;10424;52.102;8.084;2022-11-04T01:47:04;6.50;;;3.30;;
20531;SDS011;10424;52.102;8.084;2022-11-04T01:49:32;4.72;;;3.30;;
20531;SDS011;10424;52.102;8.084;2022-11-04T01:52:05;5.22;;;3.80;;
20531;SDS011;10424;52.102;8.084;2022-11-04T01:54:33;5.00;;;3.40;;
20531;SDS011;10424;52.102;8.084;2022-11-04T01:57:01;4.57;;;3.45;;
20531;SDS011;10424;52.102;8.084;2022-11-04T01:59:31;7.07;;;3.00;;
20531;SDS011;10424;52.102;8.084;2022-11-04T02:02:00;5.10;;;3.40;;
20531;SDS011;10424;52.102;8.084;2022-11-04T02:04:29;4.55;;;2.78;;
20531;SDS011;10424;52.102;8.084;2022-11-04T02:06:57;5.90;;;4.05;;
20531;SDS011;10424;52.102;8.084;2022-11-04T02:09:26;5.07;;;3.65;;
20531;SDS011;10424;52.102;8.084;2022-11-04T02:11:54;6.63;;;3.63;;
20531;SDS011;10424;52.102;8.084;2022-11-04T02:14:39;5.72;;;4.20;;
20531;SDS011;10424;52.102;8.084;2022-11-04T02:17:10;5.88;;;4.13;;
20531;SDS011;10424;52.102;8.084;2022-11-04T02:19:49;8.00;;;4.80;;
20531;SDS011;10424;52.102;8.084;2022-11-04T02:22:30;8.48;;;5.22;;
20531;SDS011;10424;52.102;8.084;2022-11-04T02:25:04;8.65;;;5.22;;
20531;SDS011;10424;52.102;8.084;2022-11-04T02:27:48;8.38;;;5.30;;
20531;SDS011;10424;52.102;8.084;2022-11-04T02:30:20;7.25;;;5.70;;
20531;SDS011;10424;52.102;8.084;2022-11-04T02:33:06;4.85;;;3.53;;
20531;SDS011;10424;52.102;8.084;2022-11-04T02:35:42;8.38;;;5.85;;
20531;SDS011;10424;52.102;8.084;2022-11-04T02:38:12;8.95;;;6.32;;
20531;SDS011;10424;52.102;8.084;2022-11-04T02:40:40;8.32;;;5.00;;
20531;SDS011;10424;52.102;8.084;2022-11-04T02:43:11;9.10;;;6.60;;
20531;SDS011;10424;52.102;8.084;2022-11-04T02:45:40;9.02;;;6.50;;
20531;SDS011;10424;52.102;8.084;2022-11-04T02:48:09;9.50;;;6.50;;
20531;SDS011;10424;52.102;8.084;2022-11-04T02:50:38;11.00;;;5.50;;
20531;SDS011;10424;52.102;8.084;2022-11-04T02:53:09;9.13;;;6.43;;
20531;SDS011;10424;52.102;8.084;2022-11-04T02:55:39;9.23;;;5.50;;
20531;SDS011;10424;52.102;8.084;2022-11-04T02:58:09;8.23;;;6.53;;
20531;SDS011;10424;52.102;8.084;2022-11-04T03:00:37;9.00;;;6.63;;
20531;SDS011;10424;52.102;8.084;2022-11-04T03:03:08;8.25;;;6.10;;
20531;SDS011;10424;52.102;8.084;2022-11-04T03:05:37;7.07;;;4.93;;
20531;SDS011;10424;52.102;8.084;2022-11-04T03:08:07;9.25;;;6.38;;
20531;SDS011;10424;52.102;8.084;2022-11-04T03:10:39;9.40;;;6.10;;
20531;SDS011;10424;52.102;8.084;2022-11-04T03:13:09;10.80;;;6.43;;
20531;SDS011;10424;52.102;8.084;2022-11-04T03:15:38;6.43;;;4.53;;
20531;SDS011;10424;52.102;8.084;2022-11-04T03:18:11;8.80;;;5.65;;
20531;SDS011;10424;52.102;8.084;2022-11-04T03:20:41;9.48;;;6.18;;
20531;SDS011;10424;52.102;8.084;2022-11-04T03:23:09;10.68;;;6.40;;
20531;SDS011;10424;52.102;8.084;2022-11-04T03:25:38;9.85;;;6.70;;
20531;SDS011;10424;52.102;8.084;2022-11-04T03:28:09;9.10;;;6.68;;
20531;SDS011;10424;52.102;8.084;2022-11-04T03:30:38;10.95;;;7.20;;
20531;SDS011;10424;52.102;8.084;2022-11-04T03:33:10;9.52;;;6.45;;
20531;SDS011;10424;52.102;8.084;2022-11-04T03:35:40;10.82;;;6.70;;
20531;SDS011;10424;52.102;8.084;2022-11-04T03:38:07;9.38;;;6.13;;
20531;SDS011;10424;52.102;8.084;2022-11-04T03:40:35;15.15;;;8.02;;
20531;SDS011;10424;52.102;8.084;2022-11-04T03:43:03;12.70;;;8.10;;
20531;SDS011;10424;52.102;8.084;2022-11-04T03:45:33;10.90;;;7.20;;
20531;SDS011;10424;52.102;8.084;2022-11-04T03:48:01;11.82;;;8.23;;
20531;SDS011;10424;52.102;8.084;2022-11-04T03:50:30;12.65;;;8.45;;
20531;SDS011;10424;52.102;8.084;2022-11-04T03:52:58;13.43;;;7.88;;
20531;SDS011;10424;52.102;8.084;2022-11-04T03:55:29;13.32;;;8.05;;
20531;SDS011;10424;52.102;8.084;2022-11-04T03:58:01;14.23;;;8.45;;
20531;SDS011;10424;52.102;8.084;2022-11-04T04:00:32;12.73;;;7.80;;
20531;SDS011;10424;52.102;8.084;2022-11-04T04:03:04;11.65;;;7.57;;
20531;SDS011;10424;52.102;8.084;2022-11-04T04:05:36;12.95;;;8.07;;
20531;SDS011;10424;52.102;8.084;2022-11-04T04:08:09;14.63;;;8.60;;
20531;SDS011;10424;52.102;8.084;2022-11-04T04:10:38;13.25;;;8.25;;
20531;SDS011;10424;52.102;8.084;2022-11-04T04:13:18;12.95;;;7.80;;
20531;SDS011;10424;52.102;8.084;2022-11-04T04:15:47;13.15;;;9.00;;
20531;SDS011;10424;52.102;8.084;2022-11-04T04:18:15;15.32;;;9.30;;
20531;SDS011;10424;52.102;8.084;2022-11-04T04:20:45;13.13;;;8.98;;
20531;SDS011;10424;52.102;8.084;2022-11-04T04:23:14;14.73;;;9.25;;
20531;SDS011;10424;52.102;8.084;2022-11-04T04:26:02;15.32;;;9.68;;
20531;SDS011;10424;52.102;8.084;2022-11-04T04:28:56;10.70;;;6.43;;
20531;SDS011;10424;52.102;8.084;2022-11-04T04:31:27;13.00;;;7.55;;
20531;SDS011;10424;52.102;8.084;2022-11-04T04:34:12;12.52;;;8.13;;
20531;SDS011;10424;52.102;8.084;2022-11-04T04:36:42;13.00;;;8.48;;
20531;SDS011;10424;52.102;8.084;2022-11-04T04:39:11;16.08;;;7.97;;
20531;SDS011;10424;52.102;8.084;2022-11-04T04:41:57;11.73;;;7.95;;
20531;SDS011;10424;52.102;8.084;2022-11-04T04:44:43;11.50;;;7.32;;
20531;SDS011;10424;52.102;8.084;2022-11-04T04:47:26;12.25;;;7.63;;
20531;SDS011;10424;52.102;8.084;2022-11-04T04:49:56;11.80;;;6.57;;
20531;SDS011;10424;52.102;8.084;2022-11-04T04:52:26;12.05;;;6.22;;
20531;SDS011;10424;52.102;8.084;2022-11-04T04:54:54;10.52;;;6.55;;
20531;SDS011;10424;52.102;8.084;2022-11-04T04:57:21;11.95;;;6.13;;
20531;SDS011;10424;52.102;8.084;2022-11-04T04:59:48;14.13;;;6.32;;
20531;SDS011;10424;52.102;8.084;2022-11-04T05:02:16;13.10;;;5.93;;
20531;SDS011;10424;52.102;8.084;2022-11-04T05:04:43;9.93;;;6.03;;
20531;SDS011;10424;52.102;8.084;2022-11-04T05:07:10;12.20;;;5.90;;
20531;SDS011;10424;52.102;8.084;2022-11-04T05:09:39;10.15;;;6.13;;
20531;SDS011;10424;52.102;8.084;2022-11-04T05:12:06;9.55;;;4.93;;
20531;SDS011;10424;52.102;8.084;2022-11-04T05:14:35;9.63;;;5.68;;
20531;SDS011;10424;52.102;8.084;2022-11-04T05:17:01;8.05;;;4.60;;
20531;SDS011;10424;52.102;8.084;2022-11-04T05:19:28;9.00;;;5.68;;
20531;SDS011;10424;52.102;8.084;2022-11-04T05:21:56;10.48;;;5.10;;
20531;SDS011;10424;52.102;8.084;2022-11-04T05:24:23;10.80;;;5.63;;
20531;SDS011;10424;52.102;8.084;2022-11-04T05:26:52;12.02;;;5.55;;
20531;SDS011;10424;52.102;8.084;2022-11-04T05:29:19;14.73;;;5.65;;
20531;SDS011;10424;52.102;8.084;2022-11-04T05:31:47;10.45;;;5.70;;
20531;SDS011;10424;52.102;8.084;2022-11-04T05:34:14;9.07;;;5.55;;
20531;SDS011;10424;52.102;8.084;2022-11-04T05:36:42;10.35;;;5.78;;
20531;SDS011;10424;52.102;8.084;2022-11-04T05:39:10;8.73;;;5.18;;
20531;SDS011;10424;52.102;8.084;2022-11-04T05:41:38;9.73;;;6.05;;
20531;SDS011;10424;52.102;8.084;2022-11-04T05:44:07;8.35;;;5.07;;
20531;SDS011;10424;52.102;8.084;2022-11-04T05:46:34;10.40;;;5.70;;
20531;SDS011;10424;52.102;8.084;2022-11-04T05:49:02;8.70;;;5.03;;
20531;SDS011;10424;52.102;8.084;2022-11-04T05:51:30;9.75;;;5.97;;
20531;SDS011;10424;52.102;8.084;2022-11-04T05:53:57;7.30;;;5.43;;
20531;SDS011;10424;52.102;8.084;2022-11-04T05:56:25;13.50;;;5.88;;
20531;SDS011;10424;52.102;8.084;2022-11-04T05:58:53;10.52;;;6.32;;
20531;SDS011;10424;52.102;8.084;2022-11-04T06:01:29;11.27;;;6.20;;
20531;SDS011;10424;52.102;8.084;2022-11-04T06:03:57;11.57;;;6.03;;
20531;SDS011;10424;52.102;8.084;2022-11-04T06:06:25;10.52;;;6.10;;
20531;SDS011;10424;52.102;8.084;2022-11-04T06:08:53;10.63;;;6.10;;
20531;SDS011;10424;52.102;8.084;2022-11-04T06:11:21;10.48;;;6.43;;
20531;SDS011;10424;52.102;8.084;2022-11-04T06:13:49;11.18;;;6.80;;
20531;SDS011;10424;52.102;8.084;2022-11-04T06:16:17;10.80;;;6.38;;
20531;SDS011;10424;52.102;8.084;2022-11-04T06:18:45;11.35;;;5.95;;
20531;SDS011;10424;52.102;8.084;2022-11-04T06:21:20;11.10;;;6.68;;
20531;SDS011;10424;52.102;8.084;2022-11-04T06:23:49;12.48;;;6.28;;
20531;SDS011;10424;52.102;8.084;2022-11-04T06:26:17;12.85;;;6.18;;
20531;SDS011;10424;52.102;8.084;2022-11-04T06:28:44;10.27;;;5.97;;
20531;SDS011;10424;52.102;8.084;2022-11-04T06:31:12;11.85;;;6.18;;
20531;SDS011;10424;52.102;8.084;2022-11-04T06:33:39;13.50;;;6.47;;
20531;SDS011;10424;52.102;8.084;2022-11-04T06:36:09;13.18;;;6.53;;
20531;SDS011;10424;52.102;8.084;2022-11-04T06:38:37;8.93;;;5.82;;
20531;SDS011;10424;52.102;8.084;2022-11-04T06:41:04;10.68;;;6.03;;
20531;SDS011;10424;52.102;8.084;2022-11-04T06:43:32;15.23;;;6.70;;
20531;SDS011;10424;52.102;8.084;2022-11-04T06:46:00;11.13;;;6.53;;
20531;SDS011;10424;52.102;8.084;2022-11-04T06:48:28;9.80;;;4.97;;
20531;SDS011;10424;52.102;8.084;2022-11-04T06:50:55;11.38;;;5.72;;
20531;SDS011;10424;52.102;8.084;2022-11-04T06:53:24;12.15;;;5.68;;
20531;SDS011;10424;52.102;8.084;2022-11-04T06:55:53;15.65;;;7.50;;
20531;SDS011;10424;52.102;8.084;2022-11-04T06:58:20;13.48;;;6.20;;
20531;SDS011;10424;52.102;8.084;2022-11-04T07:00:51;11.95;;;6.35;;
20531;SDS011;10424;52.102;8.084;2022-11-04T07:03:18;16.15;;;6.57;;
20531;SDS011;10424;52.102;8.084;2022-11-04T07:05:45;13.02;;;6.32;;
20531;SDS011;10424;52.102;8.084;2022-11-04T07:08:13;11.07;;;6.10;;
20531;SDS011;10424;52.102;8.084;2022-11-04T07:10:41;12.05;;;6.60;;
20531;SDS011;10424;52.102;8.084;2022-11-04T07:13:09;9.57;;;5.75;;
20531;SDS011;10424;52.102;8.084;2022-11-04T07:15:36;12.40;;;6.43;;
20531;SDS011;10424;52.102;8.084;2022-11-04T07:18:04;13.18;;;6.45;;
20531;SDS011;10424;52.102;8.084;2022-11-04T07:20:32;15.02;;;6.45;;
20531;SDS011;10424;52.102;8.084;2022-11-04T07:22:59;15.02;;;6.55;;
20531;SDS011;10424;52.102;8.084;2022-11-04T07:25:27;12.70;;;5.97;;
20531;SDS011;10424;52.102;8.084;2022-11-04T07:27:55;12.60;;;6.85;;
20531;SDS011;10424;52.102;8.084;2022-11-04T07:30:24;13.35;;;6.07;;
20531;SDS011;10424;52.102;8.084;2022-11-04T07:32:51;9.75;;;6.05;;
20531;SDS011;10424;52.102;8.084;2022-11-04T07:35:19;16.83;;;6.72;;
20531;SDS011;10424;52.102;8.084;2022-11-04T07:37:46;11.63;;;5.53;;
20531;SDS011;10424;52.102;8.084;2022-11-04T07:40:13;13.70;;;6.38;;
20531;SDS011;10424;52.102;8.084;2022-11-04T07:42:41;11.77;;;5.55;;
20531;SDS011;10424;52.102;8.084;2022-11-04T07:45:10;11.38;;;5.47;;
20531;SDS011;10424;52.102;8.084;2022-11-04T07:47:37;17.42;;;6.53;;
20531;SDS011;10424;52.102;8.084;2022-11-04T07:50:05;12.32;;;6.63;;
20531;SDS011;10424;52.102;8.084;2022-11-04T07:52:32;14.32;;;6.30;;
20531;SDS011;10424;52.102;8.084;2022-11-04T07:55:00;10.48;;;6.00;;
20531;SDS011;10424;52.102;8.084;2022-11-04T07:57:27;16.30;;;6.43;;
20531;SDS011;10424;52.102;8.084;2022-11-04T07:59:54;12.73;;;6.38;;
20531;SDS011;10424;52.102;8.084;2022-11-04T08:02:23;15.25;;;6.65;;
20531;SDS011;10424;52.102;8.084;2022-11-04T08:04:51;12.88;;;6.47;;
20531;SDS011;10424;52.102;8.084;2022-11-04T08:07:19;16.83;;;6.90;;
20531;SDS011;10424;52.102;8.084;2022-11-04T08:09:46;11.73;;;6.68;;
20531;SDS011;10424;52.102;8.084;2022-11-04T08:12:13;11.05;;;6.70;;
20531;SDS011;10424;52.102;8.084;2022-11-04T08:14:41;14.85;;;6.68;;
20531;SDS011;10424;52.102;8.084;2022-11-04T08:17:08;15.40;;;6.65;;
20531;SDS011;10424;52.102;8.084;2022-11-04T08:19:37;11.95;;;6.95;;
20531;SDS011;10424;52.102;8.084;2022-11-04T08:22:04;14.05;;;6.90;;
20531;SDS011;10424;52.102;8.084;2022-11-04T08:24:33;17.50;;;9.00;;
20531;SDS011;10424;52.102;8.084;2022-11-04T08:27:00;15.55;;;8.05;;
20531;SDS011;10424;52.102;8.084;2022-11-04T08:29:27;15.40;;;7.30;;
20531;SDS011;10424;52.102;8.084;2022-11-04T08:31:55;15.45;;;7.50;;
20531;SDS011;10424;52.102;8.084;2022-11-04T08:34:22;12.77;;;7.03;;
20531;SDS011;10424;52.102;8.084;2022-11-04T08:36:51;10.80;;;5.80;;
20531;SDS011;10424;52.102;8.084;2022-11-04T08:39:21;15.27;;;7.32;;
20531;SDS011;10424;52.102;8.084;2022-11-04T08:41:49;11.23;;;5.80;;
20531;SDS011;10424;52.102;8.084;2022-11-04T08:44:18;12.77;;;6.45;;
20531;SDS011;10424;52.102;8.084;2022-11-04T08:46:46;15.10;;;7.75;;
20531;SDS011;10424;52.102;8.084;2022-11-04T08:49:13;14.38;;;6.20;;
20531;SDS011;10424;52.102;8.084;2022-11-04T08:51:42;13.95;;;6.45;;
20531;SDS011;10424;52.102;8.084;2022-11-04T08:54:12;12.43;;;6.07;;
20531;SDS011;10424;52.102;8.084;2022-11-04T08:56:40;15.30;;;6.05;;
20531;SDS011;10424;52.102;8.084;2022-11-04T08:59:08;15.57;;;7.07;;
20531;SDS011;10424;52.102;8.084;2022-11-04T09:01:36;18.35;;;7.00;;
20531;SDS011;10424;52.102;8.084;2022-11-04T09:04:04;14.07;;;5.65;;
20531;SDS011;10424;52.102;8.084;2022-11-04T09:06:32;14.73;;;5.03;;
20531;SDS011;10424;52.102;8.084;2022-11-04T09:09:00;10.90;;;5.65;;
20531;SDS011;10424;52.102;8.084;2022-11-04T09:11:30;10.75;;;4.03;;
20531;SDS011;10424;52.102;8.084;2022-11-04T09:13:58;13.13;;;4.60;;
20531;SDS011;10424;52.102;8.084;2022-11-04T09:16:26;10.02;;;4.55;;
20531;SDS011;10424;52.102;8.084;2022-11-04T09:18:54;7.05;;;4.05;;
20531;SDS011;10424;52.102;8.084;2022-11-04T09:21:22;6.70;;;3.58;;
20531;SDS011;10424;52.102;8.084;2022-11-04T09:23:49;8.52;;;3.28;;
20531;SDS011;10424;52.102;8.084;2022-11-04T09:26:17;5.80;;;3.28;;
20531;SDS011;10424;52.102;8.084;2022-11-04T09:28:46;10.85;;;3.25;;
20531;SDS011;10424;52.102;8.084;2022-11-04T09:31:14;6.57;;;3.25;;
20531;SDS011;10424;52.102;8.084;2022-11-04T09:33:41;8.48;;;3.40;;
20531;SDS011;10424;52.102;8.084;2022-11-04T09:36:09;10.05;;;3.90;;
20531;SDS011;10424;52.102;8.084;2022-11-04T09:38:37;9.85;;;3.72;;
20531;SDS011;10424;52.102;8.084;2022-11-04T09:41:08;8.65;;;4.10;;
20531;SDS011;10424;52.102;8.084;2022-11-04T09:43:38;9.95;;;4.75;;
20531;SDS011;10424;52.102;8.084;2022-11-04T09:46:12;9.02;;;3.80;;
20531;SDS011;10424;52.102;8.084;2022-11-04T09:48:40;7.25;;;4.20;;
20531;SDS011;10424;52.102;8.084;2022-11-04T09:51:09;7.93;;;4.18;;
20531;SDS011;10424;52.102;8.084;2022-11-04T09:53:37;9.88;;;4.13;;
20531;SDS011;10424;52.102;8.084;2022-11-04T09:56:09;11.43;;;4.50;;
20531;SDS011;10424;52.102;8.084;2022-11-04T09:58:39;8.50;;;4.20;;
20531;SDS011;10424;52.102;8.084;2022-11-04T10:01:10;10.02;;;4.30;;
20531;SDS011;10424;52.102;8.084;2022-11-04T10:03:45;10.05;;;4.63;;
20531;SDS011;10424;52.102;8.084;2022-11-04T10:06:22;10.48;;;4.30;;
20531;SDS011;10424;52.102;8.084;2022-11-04T10:11:39;10.07;;;4.50;;
20531;SDS011;10424;52.102;8.084;2022-11-04T10:17:01;8.90;;;3.67;;
20531;SDS011;10424;52.102;8.084;2022-11-04T10:19:36;7.80;;;4.22;;
20531;SDS011;10424;52.102;8.084;2022-11-04T10:22:07;10.23;;;4.10;;
20531;SDS011;10424;52.102;8.084;2022-11-04T10:24:39;12.55;;;3.75;;
20531;SDS011;10424;52.102;8.084;2022-11-04T10:27:09;11.32;;;4.20;;
20531;SDS011;10424;52.102;8.084;2022-11-04T10:29:40;7.45;;;3.45;;
20531;SDS011;10424;52.102;8.084;2022-11-04T10:32:10;7.20;;;3.42;;
20531;SDS011;10424;52.102;8.084;2022-11-04T10:34:41;6.78;;;3.10;;
20531;SDS011;10424;52.102;8.084;2022-11-04T10:37:10;9.30;;;3.97;;
20531;SDS011;10424;52.102;8.084;2022-11-04T10:39:39;9.90;;;3.60;;
20531;SDS011;10424;52.102;8.084;2022-11-04T10:42:08;9.88;;;3.78;;
20531;SDS011;10424;52.102;8.084;2022-11-04T10:44:36;9.75;;;4.10;;
20531;SDS011;10424;52.102;8.084;2022-11-04T10:47:07;10.38;;;3.95;;
20531;SDS011;10424;52.102;8.084;2022-11-04T10:49:44;8.63;;;3.92;;
20531;SDS011;10424;52.102;8.084;2022-11-04T10:52:15;6.93;;;4.00;;
20531;SDS011;10424;52.102;8.084;2022-11-04T10:54:43;9.48;;;4.10;;
20531;SDS011;10424;52.102;8.084;2022-11-04T10:57:11;7.57;;;3.80;;
20531;SDS011;10424;52.102;8.084;2022-11-04T10:59:46;7.50;;;3.40;;
20531;SDS011;10424;52.102;8.084;2022-11-04T11:02:14;7.60;;;3.30;;
20531;SDS011;10424;52.102;8.084;2022-11-04T11:04:42;8.63;;;3.25;;
20531;SDS011;10424;52.102;8.084;2022-11-04T11:07:13;11.93;;;3.42;;
20531;SDS011;10424;52.102;8.084;2022-11-04T11:09:48;6.90;;;3.25;;
20531;SDS011;10424;52.102;8.084;2022-11-04T11:12:17;9.05;;;2.75;;
20531;SDS011;10424;52.102;8.084;2022-11-04T11:14:49;7.35;;;2.90;;
20531;SDS011;10424;52.102;8.084;2022-11-04T11:17:18;7.88;;;3.10;;
20531;SDS011;10424;52.102;8.084;2022-11-04T11:19:52;9.35;;;2.83;;
20531;SDS011;10424;52.102;8.084;2022-11-04T11:22:29;6.65;;;2.65;;
20531;SDS011;10424;52.102;8.084;2022-11-04T11:27:39;7.95;;;3.00;;
20531;SDS011;10424;52.102;8.084;2022-11-04T11:30:17;5.53;;;2.50;;
20531;SDS011;10424;52.102;8.084;2022-11-04T11:32:44;6.25;;;2.70;;
20531;SDS011;10424;52.102;8.084;2022-11-04T11:35:17;8.38;;;2.88;;
20531;SDS011;10424;52.102;8.084;2022-11-04T11:37:46;7.70;;;2.60;;
20531;SDS011;10424;52.102;8.084;2022-11-04T11:40:24;6.63;;;2.45;;
20531;SDS011;10424;52.102;8.084;2022-11-04T11:42:52;5.78;;;2.08;;
20531;SDS011;10424;52.102;8.084;2022-11-04T11:45:20;8.63;;;2.25;;
20531;SDS011;10424;52.102;8.084;2022-11-04T11:47:49;6.30;;;2.17;;
20531;SDS011;10424;52.102;8.084;2022-11-04T11:50:20;9.10;;;2.22;;
20531;SDS011;10424;52.102;8.084;2022-11-04T11:52:51;4.57;;;2.35;;
20531;SDS011;10424;52.102;8.084;2022-11-04T11:55:19;10.20;;;2.20;;
20531;SDS011;10424;52.102;8.084;2022-11-04T11:57:51;5.78;;;2.10;;
20531;SDS011;10424;52.102;8.084;2022-11-04T12:00:22;6.18;;;2.20;;
20531;SDS011;10424;52.102;8.084;2022-11-04T12:02:57;5.78;;;2.00;;
20531;SDS011;10424;52.102;8.084;2022-11-04T12:05:29;7.20;;;2.00;;
20531;SDS011;10424;52.102;8.084;2022-11-04T12:08:01;6.90;;;2.30;;
20531;SDS011;10424;52.102;8.084;2022-11-04T12:10:34;5.05;;;2.30;;
20531;SDS011;10424;52.102;8.084;2022-11-04T12:13:04;4.93;;;2.10;;
20531;SDS011;10424;52.102;8.084;2022-11-04T12:15:37;7.63;;;2.13;;
20531;SDS011;10424;52.102;8.084;2022-11-04T12:20:54;5.78;;;2.05;;
20531;SDS011;10424;52.102;8.084;2022-11-04T12:23:27;4.18;;;1.60;;
20531;SDS011;10424;52.102;8.084;2022-11-04T12:26:01;5.20;;;1.70;;
20531;SDS011;10424;52.102;8.084;2022-11-04T12:28:34;5.38;;;1.77;;
20531;SDS011;10424;52.102;8.084;2022-11-04T12:31:09;4.40;;;1.80;;
20531;SDS011;10424;52.102;8.084;2022-11-04T12:33:39;5.82;;;1.90;;
20531;SDS011;10424;52.102;8.084;2022-11-04T12:36:24;6.25;;;1.90;;
20531;SDS011;10424;52.102;8.084;2022-11-04T12:38:58;3.45;;;1.70;;
20531;SDS011;10424;52.102;8.084;2022-11-04T12:41:27;5.97;;;1.95;;
20531;SDS011;10424;52.102;8.084;2022-11-04T12:44:01;6.40;;;2.00;;
20531;SDS011;10424;52.102;8.084;2022-11-04T12:46:35;8.38;;;2.28;;
20531;SDS011;10424;52.102;8.084;2022-11-04T12:49:21;4.55;;;2.25;;
20531;SDS011;10424;52.102;8.084;2022-11-04T12:51:52;6.68;;;2.45;;
20531;SDS011;10424;52.102;8.084;2022-11-04T12:54:28;6.25;;;2.30;;
20531;SDS011;10424;52.102;8.084;2022-11-04T12:57:01;9.98;;;2.50;;
20531;SDS011;10424;52.102;8.084;2022-11-04T13:02:18;6.13;;;2.00;;
20531;SDS011;10424;52.102;8.084;2022-11-04T13:04:49;4.43;;;1.90;;
20531;SDS011;10424;52.102;8.084;2022-11-04T13:07:19;5.80;;;1.83;;
20531;SDS011;10424;52.102;8.084;2022-11-04T13:09:50;5.22;;;1.83;;
20531;SDS011;10424;52.102;8.084;2022-11-04T13:12:19;7.45;;;1.90;;
20531;SDS011;10424;52.102;8.084;2022-11-04T13:14:48;5.57;;;1.95;;
20531;SDS011;10424;52.102;8.084;2022-11-04T13:17:18;6.80;;;1.90;;
20531;SDS011;10424;52.102;8.084;2022-11-04T13:19:47;3.92;;;1.58;;
20531;SDS011;10424;52.102;8.084;2022-11-04T13:22:17;6.03;;;2.00;;
20531;SDS011;10424;52.102;8.084;2022-11-04T13:24:46;5.68;;;2.00;;
20531;SDS011;10424;52.102;8.084;2022-11-04T13:27:17;4.75;;;1.90;;
20531;SDS011;10424;52.102;8.084;2022-11-04T13:29:45;4.15;;;1.83;;
20531;SDS011;10424;52.102;8.084;2022-11-04T13:32:15;5.68;;;1.70;;
20531;SDS011;10424;52.102;8.084;2022-11-04T13:34:46;5.20;;;2.00;;
20531;SDS011;10424;52.102;8.084;2022-11-04T13:37:18;6.85;;;1.77;;
20531;SDS011;10424;52.102;8.084;2022-11-04T13:39:49;6.75;;;1.80;;
20531;SDS011;10424;52.102;8.084;2022-11-04T13:45:04;6.63;;;1.90;;
20531;SDS011;10424;52.102;8.084;2022-11-04T13:47:35;15.05;;;4.60;;
20531;SDS011;10424;52.102;8.084;2022-11-04T13:50:04;5.07;;;1.60;;
20531;SDS011;10424;52.102;8.084;2022-11-04T13:52:31;5.00;;;1.50;;
20531;SDS011;10424;52.102;8.084;2022-11-04T13:55:00;3.38;;;1.40;;
20531;SDS011;10424;52.102;8.084;2022-11-04T13:57:29;5.90;;;1.80;;
20531;SDS011;10424;52.102;8.084;2022-11-04T14:02:49;5.22;;;1.77;;
20531;SDS011;10424;52.102;8.084;2022-11-04T14:08:18;5.53;;;1.60;;
20531;SDS011;10424;52.102;8.084;2022-11-04T14:22:12;4.90;;;1.80;;
20531;SDS011;10424;52.102;8.084;2022-11-04T14:24:40;5.13;;;1.70;;
20531;SDS011;10424;52.102;8.084;2022-11-04T14:27:19;8.15;;;1.98;;
20531;SDS011;10424;52.102;8.084;2022-11-04T14:29:48;15.88;;;6.00;;
20531;SDS011;10424;52.102;8.084;2022-11-04T14:32:18;4.55;;;1.70;;
20531;SDS011;10424;52.102;8.084;2022-11-04T14:34:48;5.05;;;1.95;;
20531;SDS011;10424;52.102;8.084;2022-11-04T14:37:25;6.10;;;2.45;;
20531;SDS011;10424;52.102;8.084;2022-11-04T14:39:54;16.00;;;4.97;;
20531;SDS011;10424;52.102;8.084;2022-11-04T14:45:05;6.32;;;1.80;;
20531;SDS011;10424;52.102;8.084;2022-11-04T14:47:34;6.38;;;2.13;;
20531;SDS011;10424;52.102;8.084;2022-11-04T14:50:02;7.72;;;2.22;;
20531;SDS011;10424;52.102;8.084;2022-11-04T14:52:34;7.70;;;2.10;;
20531;SDS011;10424;52.102;8.084;2022-11-04T14:55:04;3.53;;;2.20;;
20531;SDS011;10424;52.102;8.084;2022-11-04T14:57:35;6.05;;;2.28;;
20531;SDS011;10424;52.102;8.084;2022-11-04T15:00:16;4.47;;;2.20;;
20531;SDS011;10424;52.102;8.084;2022-11-04T15:02:45;6.35;;;2.40;;
20531;SDS011;10424;52.102;8.084;2022-11-04T15:05:20;6.25;;;2.38;;
20531;SDS011;10424;52.102;8.084;2022-11-04T15:07:49;10.77;;;2.60;;
20531;SDS011;10424;52.102;8.084;2022-11-04T15:10:18;8.88;;;2.60;;
20531;SDS011;10424;52.102;8.084;2022-11-04T15:12:46;5.95;;;2.22;;
20531;SDS011;10424;52.102;8.084;2022-11-04T15:15:24;4.53;;;2.40;;
20531;SDS011;10424;52.102;8.084;2022-11-04T15:17:52;6.15;;;2.53;;
20531;SDS011;10424;52.102;8.084;2022-11-04T15:20:21;8.10;;;2.72;;
20531;SDS011;10424;52.102;8.084;2022-11-04T15:22:51;7.75;;;2.80;;
20531;SDS011;10424;52.102;8.084;2022-11-04T15:25:20;7.32;;;2.80;;
20531;SDS011;10424;52.102;8.084;2022-11-04T15:27:47;7.68;;;2.70;;
20531;SDS011;10424;52.102;8.084;2022-11-04T15:30:18;5.20;;;2.70;;
20531;SDS011;10424;52.102;8.084;2022-11-04T15:32:52;7.30;;;2.90;;
20531;SDS011;10424;52.102;8.084;2022-11-04T15:35:20;5.93;;;3.00;;
20531;SDS011;10424;52.102;8.084;2022-11-04T15:37:48;6.53;;;3.00;;
20531;SDS011;10424;52.102;8.084;2022-11-04T15:40:17;8.00;;;3.35;;